sensor_id;sensor_type;location;lat;lon;timestamp;P1;durP1;ratioP1;P2;durP2;ratioP2
37131;SDS011;23035;50.032;21.978;2022-09-09T00:00:25;51.78;;;35.55;;
37131;SDS011;23035;50.032;21.978;2022-09-09T00:05:54;52.08;;;33.10;;
37131;SDS011;23035;50.032;21.978;2022-09-09T00:11:07;53.80;;;33.23;;
37131;SDS011;23035;50.032;21.978;2022-09-09T00:16:17;55.65;;;36.42;;
37131;SDS011;23035;50.032;21.978;2022-09-09T00:21:27;54.92;;;35.50;;
37131;SDS011;23035;50.032;21.978;2022-09-09T00:26:38;56.17;;;31.33;;
37131;SDS011;23035;50.032;21.978;2022-09-09T00:31:45;51.50;;;35.13;;
37131;SDS011;23035;50.032;21.978;2022-09-09T00:36:51;52.15;;;34.42;;
37131;SDS011;23035;50.032;21.978;2022-09-09T00:41:59;53.22;;;34.80;;
37131;SDS011;23035;50.032;21.978;2022-09-09T00:47:29;51.05;;;34.97;;
37131;SDS011;23035;50.032;21.978;2022-09-09T00:52:44;50.03;;;33.85;;
37131;SDS011;23035;50.032;21.978;2022-09-09T00:57:54;52.10;;;35.33;;
37131;SDS011;23035;50.032;21.978;2022-09-09T01:08:39;56.47;;;36.50;;
37131;SDS011;23035;50.032;21.978;2022-09-09T01:13:53;56.05;;;35.13;;
37131;SDS011;23035;50.032;21.978;2022-09-09T01:19:08;45.63;;;31.95;;
37131;SDS011;23035;50.032;21.978;2022-09-09T01:24:24;52.10;;;35.30;;
37131;SDS011;23035;50.032;21.978;2022-09-09T01:29:42;57.38;;;34.58;;
37131;SDS011;23035;50.032;21.978;2022-09-09T01:34:46;44.20;;;31.05;;
37131;SDS011;23035;50.032;21.978;2022-09-09T01:39:50;51.78;;;32.72;;
37131;SDS011;23035;50.032;21.978;2022-09-09T01:44:55;55.20;;;31.55;;
37131;SDS011;23035;50.032;21.978;2022-09-09T01:49:59;57.47;;;34.80;;
37131;SDS011;23035;50.032;21.978;2022-09-09T01:55:06;53.67;;;30.95;;
37131;SDS011;23035;50.032;21.978;2022-09-09T02:00:16;51.35;;;32.22;;
37131;SDS011;23035;50.032;21.978;2022-09-09T02:05:28;51.10;;;32.33;;
37131;SDS011;23035;50.032;21.978;2022-09-09T02:10:45;55.50;;;31.30;;
37131;SDS011;23035;50.032;21.978;2022-09-09T02:16:08;53.67;;;30.25;;
37131;SDS011;23035;50.032;21.978;2022-09-09T02:21:17;51.17;;;30.50;;
37131;SDS011;23035;50.032;21.978;2022-09-09T02:26:21;48.17;;;29.85;;
37131;SDS011;23035;50.032;21.978;2022-09-09T02:36:21;42.25;;;26.85;;
37131;SDS011;23035;50.032;21.978;2022-09-09T02:41:30;43.88;;;26.00;;
37131;SDS011;23035;50.032;21.978;2022-09-09T02:46:47;42.55;;;25.92;;
37131;SDS011;23035;50.032;21.978;2022-09-09T02:52:13;40.20;;;24.17;;
37131;SDS011;23035;50.032;21.978;2022-09-09T02:57:19;44.03;;;25.08;;
37131;SDS011;23035;50.032;21.978;2022-09-09T03:02:26;43.72;;;26.25;;
37131;SDS011;23035;50.032;21.978;2022-09-09T03:07:39;42.03;;;26.75;;
37131;SDS011;23035;50.032;21.978;2022-09-09T03:12:44;43.47;;;27.85;;
37131;SDS011;23035;50.032;21.978;2022-09-09T03:17:49;40.25;;;27.40;;
37131;SDS011;23035;50.032;21.978;2022-09-09T03:22:56;45.53;;;28.07;;
37131;SDS011;23035;50.032;21.978;2022-09-09T03:33:04;40.00;;;27.45;;
37131;SDS011;23035;50.032;21.978;2022-09-09T03:38:10;40.28;;;25.38;;
37131;SDS011;23035;50.032;21.978;2022-09-09T03:43:14;46.00;;;27.95;;
37131;SDS011;23035;50.032;21.978;2022-09-09T03:48:19;41.10;;;28.03;;
37131;SDS011;23035;50.032;21.978;2022-09-09T03:53:25;41.20;;;26.98;;
37131;SDS011;23035;50.032;21.978;2022-09-09T03:58:29;46.13;;;27.33;;
37131;SDS011;23035;50.032;21.978;2022-09-09T04:03:38;40.25;;;25.83;;
37131;SDS011;23035;50.032;21.978;2022-09-09T04:08:44;41.73;;;24.97;;
37131;SDS011;23035;50.032;21.978;2022-09-09T04:13:51;44.70;;;26.83;;
37131;SDS011;23035;50.032;21.978;2022-09-09T04:18:55;39.22;;;25.08;;
37131;SDS011;23035;50.032;21.978;2022-09-09T04:24:01;44.92;;;26.92;;
37131;SDS011;23035;50.032;21.978;2022-09-09T04:34:10;43.90;;;27.80;;
37131;SDS011;23035;50.032;21.978;2022-09-09T04:39:15;39.20;;;25.63;;
37131;SDS011;23035;50.032;21.978;2022-09-09T04:44:23;33.40;;;22.45;;
37131;SDS011;23035;50.032;21.978;2022-09-09T04:49:28;72.97;;;43.63;;
37131;SDS011;23035;50.032;21.978;2022-09-09T04:54:35;41.05;;;24.58;;
37131;SDS011;23035;50.032;21.978;2022-09-09T04:59:40;40.47;;;24.60;;
37131;SDS011;23035;50.032;21.978;2022-09-09T05:04:44;32.58;;;22.52;;
37131;SDS011;23035;50.032;21.978;2022-09-09T05:09:49;36.05;;;23.20;;
37131;SDS011;23035;50.032;21.978;2022-09-09T05:14:53;37.10;;;23.88;;
37131;SDS011;23035;50.032;21.978;2022-09-09T05:19:57;45.15;;;23.45;;
37131;SDS011;23035;50.032;21.978;2022-09-09T05:25:03;35.30;;;23.88;;
37131;SDS011;23035;50.032;21.978;2022-09-09T05:30:09;29.40;;;19.25;;
37131;SDS011;23035;50.032;21.978;2022-09-09T05:35:13;28.92;;;21.42;;
37131;SDS011;23035;50.032;21.978;2022-09-09T05:40:18;27.55;;;18.92;;
37131;SDS011;23035;50.032;21.978;2022-09-09T05:45:24;29.23;;;18.48;;
37131;SDS011;23035;50.032;21.978;2022-09-09T05:50:28;28.05;;;17.67;;
37131;SDS011;23035;50.032;21.978;2022-09-09T05:55:34;27.50;;;18.85;;
37131;SDS011;23035;50.032;21.978;2022-09-09T06:00:39;26.17;;;17.60;;
37131;SDS011;23035;50.032;21.978;2022-09-09T06:05:43;21.52;;;15.45;;
37131;SDS011;23035;50.032;21.978;2022-09-09T06:10:48;18.85;;;14.27;;
37131;SDS011;23035;50.032;21.978;2022-09-09T06:15:52;16.20;;;12.38;;
37131;SDS011;23035;50.032;21.978;2022-09-09T06:21:00;14.95;;;11.65;;
37131;SDS011;23035;50.032;21.978;2022-09-09T06:26:10;13.50;;;11.32;;
37131;SDS011;23035;50.032;21.978;2022-09-09T06:31:16;15.25;;;11.68;;
37131;SDS011;23035;50.032;21.978;2022-09-09T06:36:32;16.10;;;12.32;;
37131;SDS011;23035;50.032;21.978;2022-09-09T06:41:41;14.38;;;10.55;;
37131;SDS011;23035;50.032;21.978;2022-09-09T06:47:04;17.73;;;10.90;;
37131;SDS011;23035;50.032;21.978;2022-09-09T06:52:08;12.57;;;10.87;;
37131;SDS011;23035;50.032;21.978;2022-09-09T06:57:14;13.13;;;10.95;;
37131;SDS011;23035;50.032;21.978;2022-09-09T07:02:41;10.50;;;8.70;;
37131;SDS011;23035;50.032;21.978;2022-09-09T07:07:47;10.32;;;8.23;;
37131;SDS011;23035;50.032;21.978;2022-09-09T07:12:55;11.80;;;7.43;;
37131;SDS011;23035;50.032;21.978;2022-09-09T07:18:00;8.68;;;7.15;;
37131;SDS011;23035;50.032;21.978;2022-09-09T07:23:06;10.77;;;8.18;;
37131;SDS011;23035;50.032;21.978;2022-09-09T07:28:11;9.15;;;7.85;;
37131;SDS011;23035;50.032;21.978;2022-09-09T07:33:15;11.80;;;7.57;;
37131;SDS011;23035;50.032;21.978;2022-09-09T07:38:19;11.15;;;8.32;;
37131;SDS011;23035;50.032;21.978;2022-09-09T07:43:26;11.70;;;7.70;;
37131;SDS011;23035;50.032;21.978;2022-09-09T07:48:30;10.13;;;7.15;;
37131;SDS011;23035;50.032;21.978;2022-09-09T07:53:34;8.50;;;6.72;;
37131;SDS011;23035;50.032;21.978;2022-09-09T07:58:42;9.25;;;6.20;;
37131;SDS011;23035;50.032;21.978;2022-09-09T08:03:52;10.98;;;6.75;;
37131;SDS011;23035;50.032;21.978;2022-09-09T08:08:58;8.73;;;7.30;;
37131;SDS011;23035;50.032;21.978;2022-09-09T08:14:05;7.95;;;5.95;;
37131;SDS011;23035;50.032;21.978;2022-09-09T08:19:10;8.70;;;5.93;;
37131;SDS011;23035;50.032;21.978;2022-09-09T08:24:14;9.82;;;5.50;;
37131;SDS011;23035;50.032;21.978;2022-09-09T08:29:23;6.10;;;5.25;;
37131;SDS011;23035;50.032;21.978;2022-09-09T08:34:28;7.97;;;4.75;;
37131;SDS011;23035;50.032;21.978;2022-09-09T08:39:36;7.20;;;5.13;;
37131;SDS011;23035;50.032;21.978;2022-09-09T08:44:55;6.30;;;4.47;;
37131;SDS011;23035;50.032;21.978;2022-09-09T08:50:11;7.13;;;4.93;;
37131;SDS011;23035;50.032;21.978;2022-09-09T08:55:24;6.25;;;4.35;;
37131;SDS011;23035;50.032;21.978;2022-09-09T09:00:36;6.80;;;4.40;;
37131;SDS011;23035;50.032;21.978;2022-09-09T09:05:47;6.60;;;5.28;;
37131;SDS011;23035;50.032;21.978;2022-09-09T09:11:02;6.30;;;4.57;;
37131;SDS011;23035;50.032;21.978;2022-09-09T09:16:12;5.13;;;4.60;;
37131;SDS011;23035;50.032;21.978;2022-09-09T09:21:32;8.43;;;4.07;;
37131;SDS011;23035;50.032;21.978;2022-09-09T09:26:42;6.68;;;3.95;;
37131;SDS011;23035;50.032;21.978;2022-09-09T09:31:50;5.65;;;4.28;;
37131;SDS011;23035;50.032;21.978;2022-09-09T09:36:58;5.68;;;4.72;;
37131;SDS011;23035;50.032;21.978;2022-09-09T09:42:09;5.28;;;4.63;;
37131;SDS011;23035;50.032;21.978;2022-09-09T09:47:21;5.68;;;4.03;;
37131;SDS011;23035;50.032;21.978;2022-09-09T09:52:52;4.30;;;2.97;;
37131;SDS011;23035;50.032;21.978;2022-09-09T09:58:02;3.30;;;3.00;;
37131;SDS011;23035;50.032;21.978;2022-09-09T10:03:20;3.30;;;3.00;;
37131;SDS011;23035;50.032;21.978;2022-09-09T10:08:28;8.52;;;3.90;;
37131;SDS011;23035;50.032;21.978;2022-09-09T10:13:33;3.95;;;3.20;;
37131;SDS011;23035;50.032;21.978;2022-09-09T10:18:49;3.95;;;3.55;;
37131;SDS011;23035;50.032;21.978;2022-09-09T10:24:13;4.28;;;3.70;;
37131;SDS011;23035;50.032;21.978;2022-09-09T10:29:36;4.78;;;3.50;;
37131;SDS011;23035;50.032;21.978;2022-09-09T10:34:55;5.40;;;3.30;;
37131;SDS011;23035;50.032;21.978;2022-09-09T10:40:02;4.13;;;3.13;;
37131;SDS011;23035;50.032;21.978;2022-09-09T10:45:20;3.97;;;3.58;;
37131;SDS011;23035;50.032;21.978;2022-09-09T10:50:42;3.90;;;3.50;;
37131;SDS011;23035;50.032;21.978;2022-09-09T10:56:06;4.38;;;3.67;;
37131;SDS011;23035;50.032;21.978;2022-09-09T11:01:14;6.35;;;3.78;;
37131;SDS011;23035;50.032;21.978;2022-09-09T11:06:25;5.18;;;3.33;;
37131;SDS011;23035;50.032;21.978;2022-09-09T11:11:36;4.88;;;3.80;;
37131;SDS011;23035;50.032;21.978;2022-09-09T11:16:47;5.22;;;3.38;;
37131;SDS011;23035;50.032;21.978;2022-09-09T11:21:57;4.50;;;3.60;;
37131;SDS011;23035;50.032;21.978;2022-09-09T11:27:06;8.13;;;4.00;;
37131;SDS011;23035;50.032;21.978;2022-09-09T11:32:22;5.57;;;3.53;;
37131;SDS011;23035;50.032;21.978;2022-09-09T11:37:43;3.85;;;3.35;;
37131;SDS011;23035;50.032;21.978;2022-09-09T11:43:02;5.68;;;3.42;;
37131;SDS011;23035;50.032;21.978;2022-09-09T11:48:21;4.60;;;3.75;;
37131;SDS011;23035;50.032;21.978;2022-09-09T11:53:29;4.00;;;3.60;;
37131;SDS011;23035;50.032;21.978;2022-09-09T12:03:41;6.40;;;3.53;;
37131;SDS011;23035;50.032;21.978;2022-09-09T12:08:48;3.90;;;3.42;;
37131;SDS011;23035;50.032;21.978;2022-09-09T12:13:58;4.65;;;3.40;;
37131;SDS011;23035;50.032;21.978;2022-09-09T12:19:03;6.30;;;3.50;;
37131;SDS011;23035;50.032;21.978;2022-09-09T12:29:28;4.43;;;3.70;;
37131;SDS011;23035;50.032;21.978;2022-09-09T12:34:40;4.10;;;3.28;;
37131;SDS011;23035;50.032;21.978;2022-09-09T12:39:49;3.65;;;3.20;;
37131;SDS011;23035;50.032;21.978;2022-09-09T12:44:58;3.92;;;3.03;;
37131;SDS011;23035;50.032;21.978;2022-09-09T12:50:03;3.08;;;2.78;;
37131;SDS011;23035;50.032;21.978;2022-09-09T12:55:16;3.88;;;3.05;;
37131;SDS011;23035;50.032;21.978;2022-09-09T13:00:24;2.70;;;2.50;;
37131;SDS011;23035;50.032;21.978;2022-09-09T13:05:35;5.38;;;2.80;;
37131;SDS011;23035;50.032;21.978;2022-09-09T13:10:43;4.20;;;2.92;;
37131;SDS011;23035;50.032;21.978;2022-09-09T13:15:55;5.95;;;3.28;;
37131;SDS011;23035;50.032;21.978;2022-09-09T13:21:01;6.50;;;3.67;;
37131;SDS011;23035;50.032;21.978;2022-09-09T13:31:27;4.03;;;3.25;;
37131;SDS011;23035;50.032;21.978;2022-09-09T13:36:34;4.32;;;3.55;;
37131;SDS011;23035;50.032;21.978;2022-09-09T13:41:43;7.57;;;3.60;;
37131;SDS011;23035;50.032;21.978;2022-09-09T13:46:59;3.88;;;3.58;;
37131;SDS011;23035;50.032;21.978;2022-09-09T13:52:11;3.42;;;3.08;;
37131;SDS011;23035;50.032;21.978;2022-09-09T13:57:19;6.32;;;3.30;;
37131;SDS011;23035;50.032;21.978;2022-09-09T14:02:24;3.58;;;3.05;;
37131;SDS011;23035;50.032;21.978;2022-09-09T14:07:28;5.30;;;3.30;;
37131;SDS011;23035;50.032;21.978;2022-09-09T14:12:33;5.45;;;3.42;;
37131;SDS011;23035;50.032;21.978;2022-09-09T14:17:38;3.30;;;3.00;;
37131;SDS011;23035;50.032;21.978;2022-09-09T14:22:42;3.97;;;3.10;;
37131;SDS011;23035;50.032;21.978;2022-09-09T14:27:47;5.30;;;3.42;;
37131;SDS011;23035;50.032;21.978;2022-09-09T14:32:53;3.38;;;3.08;;
37131;SDS011;23035;50.032;21.978;2022-09-09T14:37:57;4.80;;;3.20;;
37131;SDS011;23035;50.032;21.978;2022-09-09T14:43:02;3.80;;;2.90;;
37131;SDS011;23035;50.032;21.978;2022-09-09T14:48:07;3.55;;;2.97;;
37131;SDS011;23035;50.032;21.978;2022-09-09T14:53:11;6.07;;;2.93;;
37131;SDS011;23035;50.032;21.978;2022-09-09T14:58:16;4.18;;;3.05;;
37131;SDS011;23035;50.032;21.978;2022-09-09T15:03:20;3.17;;;2.80;;
37131;SDS011;23035;50.032;21.978;2022-09-09T15:08:25;4.13;;;2.90;;
37131;SDS011;23035;50.032;21.978;2022-09-09T15:13:30;7.37;;;3.30;;
37131;SDS011;23035;50.032;21.978;2022-09-09T15:18:35;8.18;;;3.33;;
37131;SDS011;23035;50.032;21.978;2022-09-09T15:23:42;3.75;;;2.75;;
37131;SDS011;23035;50.032;21.978;2022-09-09T15:28:48;3.90;;;2.63;;
37131;SDS011;23035;50.032;21.978;2022-09-09T15:33:53;11.75;;;8.75;;
37131;SDS011;23035;50.032;21.978;2022-09-09T15:39:03;54.65;;;36.13;;
37131;SDS011;23035;50.032;21.978;2022-09-09T15:44:09;17.40;;;11.50;;
37131;SDS011;23035;50.032;21.978;2022-09-09T15:49:15;19.40;;;12.60;;
37131;SDS011;23035;50.032;21.978;2022-09-09T15:54:21;18.63;;;12.48;;
37131;SDS011;23035;50.032;21.978;2022-09-09T16:04:33;21.77;;;14.15;;
37131;SDS011;23035;50.032;21.978;2022-09-09T16:09:37;18.67;;;13.35;;
37131;SDS011;23035;50.032;21.978;2022-09-09T16:14:42;20.75;;;12.48;;
37131;SDS011;23035;50.032;21.978;2022-09-09T16:19:47;26.10;;;12.85;;
37131;SDS011;23035;50.032;21.978;2022-09-09T16:24:51;22.60;;;13.57;;
37131;SDS011;23035;50.032;21.978;2022-09-09T16:29:56;20.25;;;13.23;;
37131;SDS011;23035;50.032;21.978;2022-09-09T16:35:00;24.10;;;14.65;;
37131;SDS011;23035;50.032;21.978;2022-09-09T16:40:05;21.63;;;13.60;;
37131;SDS011;23035;50.032;21.978;2022-09-09T16:45:12;20.55;;;13.43;;
37131;SDS011;23035;50.032;21.978;2022-09-09T16:50:16;22.40;;;14.07;;
37131;SDS011;23035;50.032;21.978;2022-09-09T16:55:20;20.50;;;13.40;;
37131;SDS011;23035;50.032;21.978;2022-09-09T17:00:25;21.80;;;13.93;;
37131;SDS011;23035;50.032;21.978;2022-09-09T17:05:30;21.98;;;14.50;;
37131;SDS011;23035;50.032;21.978;2022-09-09T17:10:39;20.93;;;13.63;;
37131;SDS011;23035;50.032;21.978;2022-09-09T17:15:45;27.15;;;16.25;;
37131;SDS011;23035;50.032;21.978;2022-09-09T17:25:56;24.42;;;15.07;;
37131;SDS011;23035;50.032;21.978;2022-09-09T17:31:02;22.75;;;14.38;;
37131;SDS011;23035;50.032;21.978;2022-09-09T17:36:09;24.00;;;14.70;;
37131;SDS011;23035;50.032;21.978;2022-09-09T17:46:21;25.60;;;14.05;;
37131;SDS011;23035;50.032;21.978;2022-09-09T17:51:27;25.17;;;15.50;;
37131;SDS011;23035;50.032;21.978;2022-09-09T17:56:33;22.83;;;15.80;;
37131;SDS011;23035;50.032;21.978;2022-09-09T18:01:40;22.50;;;14.35;;
37131;SDS011;23035;50.032;21.978;2022-09-09T18:06:47;22.75;;;13.23;;
37131;SDS011;23035;50.032;21.978;2022-09-09T18:11:53;21.25;;;13.63;;
37131;SDS011;23035;50.032;21.978;2022-09-09T18:17:01;18.25;;;12.93;;
37131;SDS011;23035;50.032;21.978;2022-09-09T18:22:06;22.80;;;14.10;;
37131;SDS011;23035;50.032;21.978;2022-09-09T18:27:10;21.35;;;13.55;;
37131;SDS011;23035;50.032;21.978;2022-09-09T18:32:16;24.15;;;15.43;;
37131;SDS011;23035;50.032;21.978;2022-09-09T18:37:21;26.13;;;15.57;;
37131;SDS011;23035;50.032;21.978;2022-09-09T18:42:25;25.73;;;14.82;;
37131;SDS011;23035;50.032;21.978;2022-09-09T18:47:30;24.63;;;14.40;;
37131;SDS011;23035;50.032;21.978;2022-09-09T18:52:34;21.08;;;13.75;;
37131;SDS011;23035;50.032;21.978;2022-09-09T18:57:38;23.42;;;14.75;;
37131;SDS011;23035;50.032;21.978;2022-09-09T19:02:44;23.37;;;14.17;;
37131;SDS011;23035;50.032;21.978;2022-09-09T19:07:54;25.00;;;16.63;;
37131;SDS011;23035;50.032;21.978;2022-09-09T19:12:58;21.33;;;14.07;;
37131;SDS011;23035;50.032;21.978;2022-09-09T19:18:04;23.35;;;14.77;;
37131;SDS011;23035;50.032;21.978;2022-09-09T19:23:09;21.58;;;13.68;;
37131;SDS011;23035;50.032;21.978;2022-09-09T19:28:16;24.55;;;16.58;;
37131;SDS011;23035;50.032;21.978;2022-09-09T19:33:21;32.85;;;17.42;;
37131;SDS011;23035;50.032;21.978;2022-09-09T19:38:25;23.80;;;14.50;;
37131;SDS011;23035;50.032;21.978;2022-09-09T19:43:29;21.65;;;14.23;;
37131;SDS011;23035;50.032;21.978;2022-09-09T19:48:35;26.98;;;16.23;;
37131;SDS011;23035;50.032;21.978;2022-09-09T19:53:42;26.73;;;16.33;;
37131;SDS011;23035;50.032;21.978;2022-09-09T19:58:47;21.40;;;12.70;;
37131;SDS011;23035;50.032;21.978;2022-09-09T20:03:53;26.85;;;16.25;;
37131;SDS011;23035;50.032;21.978;2022-09-09T20:08:58;24.40;;;16.30;;
37131;SDS011;23035;50.032;21.978;2022-09-09T20:14:03;28.80;;;16.48;;
37131;SDS011;23035;50.032;21.978;2022-09-09T20:19:08;23.38;;;15.05;;
37131;SDS011;23035;50.032;21.978;2022-09-09T20:24:14;26.15;;;17.17;;
37131;SDS011;23035;50.032;21.978;2022-09-09T20:29:20;26.85;;;18.20;;
37131;SDS011;23035;50.032;21.978;2022-09-09T20:34:26;27.13;;;17.77;;
37131;SDS011;23035;50.032;21.978;2022-09-09T20:39:31;25.17;;;16.42;;
37131;SDS011;23035;50.032;21.978;2022-09-09T20:44:37;23.60;;;16.00;;
37131;SDS011;23035;50.032;21.978;2022-09-09T20:49:42;25.98;;;17.40;;
37131;SDS011;23035;50.032;21.978;2022-09-09T20:54:46;22.38;;;14.73;;
37131;SDS011;23035;50.032;21.978;2022-09-09T20:59:50;26.92;;;15.10;;
37131;SDS011;23035;50.032;21.978;2022-09-09T21:04:55;28.77;;;16.88;;
37131;SDS011;23035;50.032;21.978;2022-09-09T21:10:00;24.05;;;16.35;;
37131;SDS011;23035;50.032;21.978;2022-09-09T21:15:04;23.33;;;17.00;;
37131;SDS011;23035;50.032;21.978;2022-09-09T21:20:10;21.13;;;14.20;;
37131;SDS011;23035;50.032;21.978;2022-09-09T21:25:14;21.33;;;13.35;;
37131;SDS011;23035;50.032;21.978;2022-09-09T21:30:18;30.20;;;17.80;;
37131;SDS011;23035;50.032;21.978;2022-09-09T21:35:35;26.50;;;16.20;;
37131;SDS011;23035;50.032;21.978;2022-09-09T21:40:41;29.70;;;18.77;;
37131;SDS011;23035;50.032;21.978;2022-09-09T21:45:46;26.65;;;15.52;;
37131;SDS011;23035;50.032;21.978;2022-09-09T21:50:53;26.92;;;17.45;;
37131;SDS011;23035;50.032;21.978;2022-09-09T21:55:59;22.48;;;16.10;;
37131;SDS011;23035;50.032;21.978;2022-09-09T22:01:06;30.50;;;19.40;;
37131;SDS011;23035;50.032;21.978;2022-09-09T22:06:13;28.40;;;20.05;;
37131;SDS011;23035;50.032;21.978;2022-09-09T22:11:19;21.70;;;14.85;;
37131;SDS011;23035;50.032;21.978;2022-09-09T22:16:26;27.83;;;18.33;;
37131;SDS011;23035;50.032;21.978;2022-09-09T22:21:32;20.70;;;14.13;;
37131;SDS011;23035;50.032;21.978;2022-09-09T22:26:36;26.75;;;18.30;;
37131;SDS011;23035;50.032;21.978;2022-09-09T22:31:40;27.43;;;18.43;;
37131;SDS011;23035;50.032;21.978;2022-09-09T22:36:45;25.67;;;19.00;;
37131;SDS011;23035;50.032;21.978;2022-09-09T22:41:51;20.75;;;15.00;;
37131;SDS011;23035;50.032;21.978;2022-09-09T22:46:56;23.98;;;16.98;;
37131;SDS011;23035;50.032;21.978;2022-09-09T22:52:01;24.23;;;15.52;;
37131;SDS011;23035;50.032;21.978;2022-09-09T22:57:05;27.83;;;18.02;;
37131;SDS011;23035;50.032;21.978;2022-09-09T23:02:10;30.42;;;18.77;;
37131;SDS011;23035;50.032;21.978;2022-09-09T23:07:17;28.83;;;18.17;;
37131;SDS011;23035;50.032;21.978;2022-09-09T23:12:22;24.63;;;16.08;;
37131;SDS011;23035;50.032;21.978;2022-09-09T23:17:28;26.70;;;16.70;;
37131;SDS011;23035;50.032;21.978;2022-09-09T23:22:35;34.58;;;19.10;;
37131;SDS011;23035;50.032;21.978;2022-09-09T23:27:40;25.23;;;17.35;;
37131;SDS011;23035;50.032;21.978;2022-09-09T23:32:47;24.55;;;17.45;;
37131;SDS011;23035;50.032;21.978;2022-09-09T23:37:53;22.58;;;14.65;;
37131;SDS011;23035;50.032;21.978;2022-09-09T23:42:57;22.92;;;15.88;;
37131;SDS011;23035;50.032;21.978;2022-09-09T23:48:02;25.97;;;15.27;;
37131;SDS011;23035;50.032;21.978;2022-09-09T23:53:07;27.77;;;18.52;;
37131;SDS011;23035;50.032;21.978;2022-09-09T23:58:12;28.55;;;17.58;;
